Time;durP1;ratioP1;P1;durP2;ratioP2;P2;SDS_P1;SDS_P2;PMS_P1;PMS_P2;Temp;Humidity;BMP_temperature;BMP_pressure;BME280_temperature;BME280_humidity;BME280_pressure;Samples;Min_cycle;Max_cycle;Signal;HPM_P1;HPM_P2
2023/04/22 00:00:45;;;;;;;8.47;4.40;;;;;;;;;;5065896;28;20209;-90
2023/04/22 00:03:12;;;;;;;11.23;5.33;;;;;;;;;;5061945;28;20216;-90
2023/04/22 00:05:40;;;;;;;7.53;4.93;;;;;;;;;;5056124;28;20265;-90
2023/04/22 00:08:07;;;;;;;6.17;4.23;;;;;;;;;;5062660;28;20668;-90
2023/04/22 00:10:35;;;;;;;3.53;3.23;;;;;;;;;;5062399;28;20703;-89
2023/04/22 00:13:02;;;;;;;10.70;3.53;;;;;;;;;;5066090;28;20201;-90
2023/04/22 00:15:29;;;;;;;4.53;3.10;;;;;;;;;;5060851;28;20212;-89
2023/04/22 00:17:55;;;;;;;3.80;2.97;;;;;;;;;;5076437;28;20208;-91
2023/04/22 00:20:22;;;;;;;4.33;3.27;;;;;;;;;;5058838;28;20284;-88
2023/04/22 00:22:49;;;;;;;5.87;3.10;;;;;;;;;;5056586;28;20205;-91
2023/04/22 00:25:16;;;;;;;5.87;3.50;;;;;;;;;;5069319;28;20233;-90
2023/04/22 00:27:44;;;;;;;10.37;3.43;;;;;;;;;;5067956;28;20224;-91
2023/04/22 00:30:12;;;;;;;8.40;3.17;;;;;;;;;;5062487;28;20314;-90
2023/04/22 00:32:39;;;;;;;3.40;3.00;;;;;;;;;;5063447;28;20688;-90
2023/04/22 00:35:07;;;;;;;4.03;3.00;;;;;;;;;;5061988;28;20660;-90
2023/04/22 00:37:36;;;;;;;4.63;2.90;;;;;;;;;;5063221;28;20202;-91
2023/04/22 00:40:08;;;;;;;3.00;2.63;;;;;;;;;;5075823;28;20364;-90
2023/04/22 00:42:35;;;;;;;5.10;3.33;;;;;;;;;;5062860;28;20224;-90
2023/04/22 00:45:03;;;;;;;3.87;3.30;;;;;;;;;;5076049;28;20219;-90
2023/04/22 00:47:31;;;;;;;10.27;3.23;;;;;;;;;;5075176;28;20744;-90
2023/04/22 00:49:59;;;;;;;4.93;3.13;;;;;;;;;;5067873;28;20290;-89
2023/04/22 00:52:25;;;;;;;4.40;2.53;;;;;;;;;;5056410;28;20569;-90
2023/04/22 00:54:52;;;;;;;5.03;3.30;;;;;;;;;;5068128;28;20221;-90
2023/04/22 00:57:19;;;;;;;3.87;3.20;;;;;;;;;;5056932;28;20213;-90
2023/04/22 00:59:46;;;;;;;4.57;3.77;;;;;;;;;;5075727;28;20207;-89
2023/04/22 01:02:15;;;;;;;10.90;3.93;;;;;;;;;;5075218;28;20668;-90
2023/04/22 01:04:42;;;;;;;4.93;4.13;;;;;;;;;;5067578;28;20241;-90
2023/04/22 01:07:09;;;;;;;5.00;3.63;;;;;;;;;;5069024;28;20216;-89
2023/04/22 01:09:38;;;;;;;4.30;3.57;;;;;;;;;;5055857;28;20204;-90
2023/04/22 01:12:05;;;;;;;9.00;3.43;;;;;;;;;;5071012;28;20597;-89
2023/04/22 01:14:32;;;;;;;5.23;2.90;;;;;;;;;;5066549;28;20217;-89
2023/04/22 01:16:59;;;;;;;5.73;2.73;;;;;;;;;;5070864;28;20209;-89
2023/04/22 01:19:28;;;;;;;2.80;2.60;;;;;;;;;;5065794;28;20649;-90
2023/04/22 01:21:55;;;;;;;6.57;2.93;;;;;;;;;;5058425;28;20213;-89
2023/04/22 01:24:24;;;;;;;3.77;3.40;;;;;;;;;;5074902;28;20233;-89
2023/04/22 01:26:51;;;;;;;9.17;3.40;;;;;;;;;;5058160;28;20213;-90
2023/04/22 01:29:18;;;;;;;6.73;3.00;;;;;;;;;;5065567;28;20209;-90
2023/04/22 01:31:45;;;;;;;4.27;3.10;;;;;;;;;;5070570;28;20720;-90
2023/04/22 01:34:12;;;;;;;3.13;2.90;;;;;;;;;;5065416;28;20205;-89
2023/04/22 01:36:38;;;;;;;5.30;2.93;;;;;;;;;;5057632;28;20218;-89
2023/04/22 01:39:06;;;;;;;4.93;3.03;;;;;;;;;;5065807;28;20757;-89
2023/04/22 01:41:34;;;;;;;12.13;3.10;;;;;;;;;;5070132;28;20759;-90
2023/04/22 01:44:03;;;;;;;8.50;4.40;;;;;;;;;;5066363;28;20212;-90
2023/04/22 01:46:30;;;;;;;4.30;3.90;;;;;;;;;;5061317;28;20216;-90
2023/04/22 01:48:57;;;;;;;4.10;3.30;;;;;;;;;;5074391;28;20209;-91
2023/04/22 01:51:24;;;;;;;8.40;3.87;;;;;;;;;;5074941;28;20225;-90
2023/04/22 01:53:51;;;;;;;5.30;3.57;;;;;;;;;;5074931;28;20628;-89
2023/04/22 01:56:18;;;;;;;4.40;3.50;;;;;;;;;;5067981;28;20210;-89
2023/04/22 01:58:46;;;;;;;4.30;3.70;;;;;;;;;;5068183;28;20672;-90
2023/04/22 02:01:13;;;;;;;4.17;3.33;;;;;;;;;;5041366;28;20753;-89
2023/04/22 02:03:40;;;;;;;4.07;3.33;;;;;;;;;;5067806;28;20201;-90
2023/04/22 02:06:07;;;;;;;8.07;4.03;;;;;;;;;;5061433;28;20212;-89
2023/04/22 02:08:34;;;;;;;5.23;4.07;;;;;;;;;;5060813;28;20218;-89
2023/04/22 02:11:01;;;;;;;3.50;3.20;;;;;;;;;;5073977;28;20236;-89
2023/04/22 02:13:35;;;;;;;3.90;3.60;;;;;;;;;;5074071;28;20201;-89
2023/04/22 02:16:06;;;;;;;5.73;4.30;;;;;;;;;;5062529;28;20209;-89
2023/04/22 02:18:33;;;;;;;5.40;3.60;;;;;;;;;;5072464;28;20267;-96
2023/04/22 02:21:00;;;;;;;5.20;4.43;;;;;;;;;;5062543;28;20709;-87
2023/04/22 02:23:27;;;;;;;4.07;3.67;;;;;;;;;;5056313;28;20805;-89
2023/04/22 02:25:56;;;;;;;7.83;3.57;;;;;;;;;;5055502;28;20291;-89
2023/04/22 02:28:22;;;;;;;4.17;3.57;;;;;;;;;;5067452;28;20210;-90
2023/04/22 02:30:49;;;;;;;3.87;3.47;;;;;;;;;;5054027;28;20229;-89
2023/04/22 02:33:17;;;;;;;7.30;4.33;;;;;;;;;;5067115;28;20210;-90
2023/04/22 02:35:44;;;;;;;12.33;4.17;;;;;;;;;;5064756;28;20668;-89
2023/04/22 02:38:11;;;;;;;7.90;3.90;;;;;;;;;;5070024;28;20730;-88
2023/04/22 02:40:38;;;;;;;4.23;3.40;;;;;;;;;;5053685;28;20757;-89
2023/04/22 02:43:04;;;;;;;16.67;6.80;;;;;;;;;;5058023;28;20208;-88
2023/04/22 02:45:31;;;;;;;13.13;6.47;;;;;;;;;;5062913;28;20213;-89
2023/04/22 02:47:58;;;;;;;10.33;5.23;;;;;;;;;;5067048;28;20205;-89
2023/04/22 02:50:26;;;;;;;6.27;3.90;;;;;;;;;;5053471;28;20213;-88
2023/04/22 02:52:53;;;;;;;8.47;4.63;;;;;;;;;;5066553;28;20201;-88
2023/04/22 02:55:20;;;;;;;5.00;4.00;;;;;;;;;;5053306;28;20271;-88
2023/04/22 02:57:47;;;;;;;6.00;4.87;;;;;;;;;;5066738;28;20560;-90
2023/04/22 03:00:14;;;;;;;8.03;6.27;;;;;;;;;;5065514;28;20278;-89
2023/04/22 03:02:41;;;;;;;10.33;9.33;;;;;;;;;;5068028;28;20300;-90
2023/04/22 03:05:09;;;;;;;6.83;6.27;;;;;;;;;;5053418;28;20287;-89
2023/04/22 03:07:37;;;;;;;11.30;4.70;;;;;;;;;;5066617;28;20267;-89
2023/04/22 03:10:08;;;;;;;7.17;4.83;;;;;;;;;;5053214;28;20213;-88
2023/04/22 03:12:35;;;;;;;9.47;4.13;;;;;;;;;;5047341;28;20278;-94
2023/04/22 03:15:02;;;;;;;6.23;4.13;;;;;;;;;;5059507;28;20217;-94
2023/04/22 03:17:28;;;;;;;7.67;4.43;;;;;;;;;;5073233;28;20213;-93
2023/04/22 03:19:55;;;;;;;5.73;4.20;;;;;;;;;;5073475;28;20262;-93
2023/04/22 03:22:22;;;;;;;5.80;4.60;;;;;;;;;;5073144;28;20215;-94
2023/04/22 03:24:50;;;;;;;8.33;5.57;;;;;;;;;;5059883;28;20233;-93
2023/04/22 03:27:17;;;;;;;6.13;4.70;;;;;;;;;;5073321;28;20209;-94
2023/04/22 03:29:44;;;;;;;7.90;5.07;;;;;;;;;;5059787;28;20206;-94
2023/04/22 03:32:12;;;;;;;3.40;3.10;;;;;;;;;;5072661;28;20236;-93
2023/04/22 03:34:38;;;;;;;5.20;3.73;;;;;;;;;;5070546;28;20209;-93
2023/04/22 03:37:05;;;;;;;5.03;4.20;;;;;;;;;;5052561;28;20209;-93
2023/04/22 03:39:32;;;;;;;5.00;3.80;;;;;;;;;;5054665;28;20210;-91
2023/04/22 03:42:00;;;;;;;10.63;4.10;;;;;;;;;;5072272;28;20209;-91
2023/04/22 03:44:27;;;;;;;4.97;3.90;;;;;;;;;;5056636;28;20267;-91
2023/04/22 03:46:54;;;;;;;6.40;4.43;;;;;;;;;;5052775;28;20209;-91
2023/04/22 03:49:20;;;;;;;6.93;4.73;;;;;;;;;;5067895;28;20208;-91
2023/04/22 03:51:47;;;;;;;6.60;5.93;;;;;;;;;;5063568;28;20260;-90
2023/04/22 03:54:14;;;;;;;8.03;5.30;;;;;;;;;;5068684;28;20209;-90
2023/04/22 03:56:41;;;;;;;5.30;3.70;;;;;;;;;;5072724;28;20205;-91
2023/04/22 03:59:09;;;;;;;5.73;3.90;;;;;;;;;;5071922;28;20221;-91
2023/04/22 04:01:36;;;;;;;4.10;3.77;;;;;;;;;;5072444;28;20205;-91
2023/04/22 04:04:03;;;;;;;4.93;3.80;;;;;;;;;;5072584;28;20220;-90
2023/04/22 04:06:30;;;;;;;5.03;3.83;;;;;;;;;;5072238;28;20212;-91
2023/04/22 04:08:57;;;;;;;4.63;3.17;;;;;;;;;;5072255;28;20216;-91
2023/04/22 04:11:24;;;;;;;3.70;3.40;;;;;;;;;;5062593;28;20225;-91
2023/04/22 04:13:51;;;;;;;5.77;3.07;;;;;;;;;;5065863;28;20213;-91
2023/04/22 04:16:19;;;;;;;3.63;3.37;;;;;;;;;;5052387;28;20260;-88
2023/04/22 04:18:46;;;;;;;3.60;3.30;;;;;;;;;;5069112;28;20258;-88
2023/04/22 04:21:13;;;;;;;5.73;3.27;;;;;;;;;;5061346;28;20213;-88
2023/04/22 04:23:40;;;;;;;6.00;3.83;;;;;;;;;;5069352;28;20266;-88
2023/04/22 04:26:07;;;;;;;5.13;3.37;;;;;;;;;;5072116;28;20209;-88
2023/04/22 04:28:34;;;;;;;5.33;3.53;;;;;;;;;;5054621;28;20213;-87
2023/04/22 04:31:02;;;;;;;3.53;3.23;;;;;;;;;;5051888;28;20288;-88
2023/04/22 04:33:31;;;;;;;5.17;4.57;;;;;;;;;;5069996;28;20282;-90
2023/04/22 04:35:58;;;;;;;5.47;3.30;;;;;;;;;;5060346;28;20592;-88
2023/04/22 04:38:25;;;;;;;4.83;4.17;;;;;;;;;;5069499;28;20216;-89
2023/04/22 04:40:53;;;;;;;4.37;3.43;;;;;;;;;;5053895;28;20214;-89
2023/04/22 04:43:24;;;;;;;5.80;4.20;;;;;;;;;;5063545;28;20201;-89
2023/04/22 04:45:51;;;;;;;10.07;3.53;;;;;;;;;;5053165;28;20742;-90
2023/04/22 04:48:18;;;;;;;6.13;3.83;;;;;;;;;;5040479;28;20645;-89
2023/04/22 04:50:49;;;;;;;4.40;3.87;;;;;;;;;;5058552;28;20214;-89
2023/04/22 04:53:15;;;;;;;5.83;3.20;;;;;;;;;;5071880;28;20213;-89
2023/04/22 04:55:44;;;;;;;4.20;3.80;;;;;;;;;;5060792;28;20213;-89
2023/04/22 04:58:11;;;;;;;6.03;3.80;;;;;;;;;;5075083;28;20646;-84
2023/04/22 05:00:38;;;;;;;4.30;3.90;;;;;;;;;;5050717;28;20252;-86
2023/04/22 05:03:05;;;;;;;5.20;4.03;;;;;;;;;;5062039;28;20209;-86
2023/04/22 05:05:31;;;;;;;6.77;4.07;;;;;;;;;;5062186;28;20201;-86
2023/04/22 05:08:00;;;;;;;4.67;4.00;;;;;;;;;;5074787;28;20262;-85
2023/04/22 05:10:27;;;;;;;5.50;3.93;;;;;;;;;;5060234;28;20201;-86
2023/04/22 05:12:54;;;;;;;6.23;3.20;;;;;;;;;;5075698;28;20704;-85
2023/04/22 05:15:22;;;;;;;4.80;4.33;;;;;;;;;;5066075;28;20267;-84
2023/04/22 05:17:50;;;;;;;4.00;3.70;;;;;;;;;;5055342;28;20293;-85
2023/04/22 05:20:16;;;;;;;8.33;4.27;;;;;;;;;;5048235;28;20277;-85
2023/04/22 05:22:44;;;;;;;6.23;4.30;;;;;;;;;;5060043;28;20208;-84
2023/04/22 05:25:12;;;;;;;5.30;4.70;;;;;;;;;;5060615;28;20228;-85
2023/04/22 05:27:40;;;;;;;3.93;3.63;;;;;;;;;;5060522;28;20213;-85
2023/04/22 05:30:08;;;;;;;4.63;3.73;;;;;;;;;;5048375;28;20216;-84
2023/04/22 05:32:35;;;;;;;5.00;3.50;;;;;;;;;;5059956;28;20225;-85
2023/04/22 05:35:02;;;;;;;5.63;3.50;;;;;;;;;;5061888;28;20708;-85
2023/04/22 05:37:29;;;;;;;4.53;4.07;;;;;;;;;;5060287;28;20214;-85
2023/04/22 05:39:56;;;;;;;5.33;3.57;;;;;;;;;;5066121;28;20212;-84
2023/04/22 05:42:25;;;;;;;3.47;3.17;;;;;;;;;;5067278;28;20205;-84
2023/04/22 05:44:51;;;;;;;8.63;3.73;;;;;;;;;;5062363;28;20209;-85
2023/04/22 05:47:18;;;;;;;5.40;4.17;;;;;;;;;;5060079;28;20680;-85
2023/04/22 05:49:45;;;;;;;5.93;4.73;;;;;;;;;;5073489;28;20205;-84
2023/04/22 05:52:11;;;;;;;6.13;4.23;;;;;;;;;;5073572;28;20225;-84
2023/04/22 05:54:38;;;;;;;8.40;5.63;;;;;;;;;;5054133;28;20202;-84
2023/04/22 05:57:05;;;;;;;7.73;5.07;;;;;;;;;;5065714;28;20263;-86
2023/04/22 05:59:33;;;;;;;14.00;6.70;;;;;;;;;;5073006;28;20209;-85
2023/04/22 06:02:00;;;;;;;7.80;4.80;;;;;;;;;;5059952;28;20198;-85
2023/04/22 06:04:27;;;;;;;5.73;4.73;;;;;;;;;;5052103;28;20205;-85
2023/04/22 06:06:54;;;;;;;5.40;3.87;;;;;;;;;;5062272;28;20267;-84
2023/04/22 06:09:21;;;;;;;6.17;4.87;;;;;;;;;;5053287;28;20264;-85
2023/04/22 06:11:48;;;;;;;3.53;3.23;;;;;;;;;;5072633;28;20352;-84
2023/04/22 06:14:15;;;;;;;4.93;3.47;;;;;;;;;;5060392;28;20681;-85
2023/04/22 06:16:43;;;;;;;10.77;4.10;;;;;;;;;;5058968;28;20205;-85
2023/04/22 06:19:10;;;;;;;9.00;3.17;;;;;;;;;;5073059;28;20213;-85
2023/04/22 06:21:39;;;;;;;5.87;3.07;;;;;;;;;;5059683;28;20209;-85
2023/04/22 06:24:06;;;;;;;3.53;2.80;;;;;;;;;;5072546;28;20236;-85
2023/04/22 06:26:34;;;;;;;3.93;2.67;;;;;;;;;;5061838;28;20206;-86
2023/04/22 06:29:04;;;;;;;6.47;3.87;;;;;;;;;;5040402;28;20198;-85
2023/04/22 06:31:30;;;;;;;7.33;3.83;;;;;;;;;;5064802;28;20202;-86
2023/04/22 06:33:59;;;;;;;9.03;4.57;;;;;;;;;;5065527;28;20268;-84
2023/04/22 06:36:26;;;;;;;5.23;3.10;;;;;;;;;;5063819;28;20280;-84
2023/04/22 06:38:53;;;;;;;4.03;2.90;;;;;;;;;;5059117;28;20642;-83
2023/04/22 06:41:21;;;;;;;8.53;3.87;;;;;;;;;;5061296;28;20205;-83
2023/04/22 06:43:48;;;;;;;4.83;3.93;;;;;;;;;;5065061;28;20684;-84
2023/04/22 06:46:16;;;;;;;3.20;3.00;;;;;;;;;;5052443;28;20209;-83
2023/04/22 06:48:42;;;;;;;4.40;2.57;;;;;;;;;;5065216;28;20221;-84
2023/04/22 06:51:11;;;;;;;4.30;2.70;;;;;;;;;;5065336;28;20205;-84
2023/04/22 06:53:37;;;;;;;4.33;2.60;;;;;;;;;;5062904;28;20235;-84
2023/04/22 06:56:05;;;;;;;6.20;3.17;;;;;;;;;;5054429;28;20202;-84
2023/04/22 06:58:31;;;;;;;4.90;2.70;;;;;;;;;;5063393;28;20259;-86
2023/04/22 07:00:58;;;;;;;7.77;3.67;;;;;;;;;;5054243;28;20217;-83
2023/04/22 07:03:26;;;;;;;3.10;2.10;;;;;;;;;;5052030;28;20217;-83
2023/04/22 07:05:52;;;;;;;7.60;3.07;;;;;;;;;;5068376;28;20215;-84
2023/04/22 07:08:21;;;;;;;2.97;2.77;;;;;;;;;;5042482;28;20199;-83
2023/04/22 07:10:48;;;;;;;5.57;2.80;;;;;;;;;;5061528;28;20219;-83
2023/04/22 07:13:15;;;;;;;8.17;2.87;;;;;;;;;;5071319;28;20783;-84
2023/04/22 07:15:45;;;;;;;7.33;3.00;;;;;;;;;;5055074;28;20214;-84
2023/04/22 07:18:11;;;;;;;2.43;2.23;;;;;;;;;;5031371;28;20202;-84
2023/04/22 07:20:38;;;;;;;4.17;2.43;;;;;;;;;;5060885;28;20224;-83
2023/04/22 07:23:05;;;;;;;6.30;2.50;;;;;;;;;;5060391;28;20217;-85
2023/04/22 07:25:33;;;;;;;7.47;2.90;;;;;;;;;;5070001;28;20236;-94
2023/04/22 07:28:00;;;;;;;5.70;3.43;;;;;;;;;;5062234;28;20209;-93
2023/04/22 07:30:27;;;;;;;5.13;3.57;;;;;;;;;;5059492;28;20288;-95
2023/04/22 07:32:54;;;;;;;3.40;3.07;;;;;;;;;;5063078;28;20244;-94
2023/04/22 07:35:21;;;;;;;6.63;5.00;;;;;;;;;;5065961;28;20348;-93
2023/04/22 07:37:47;;;;;;;7.70;3.87;;;;;;;;;;5052664;28;20222;-93
2023/04/22 07:40:14;;;;;;;5.47;3.80;;;;;;;;;;5069233;28;20274;-94
2023/04/22 07:42:42;;;;;;;6.77;4.47;;;;;;;;;;5062735;28;20233;-94
2023/04/22 07:45:09;;;;;;;7.10;4.30;;;;;;;;;;5051814;28;20260;-93
2023/04/22 07:47:36;;;;;;;9.87;4.90;;;;;;;;;;5063121;28;20240;-91
2023/04/22 07:50:03;;;;;;;4.43;4.03;;;;;;;;;;5072268;28;20205;-93
2023/04/22 07:52:30;;;;;;;5.30;4.57;;;;;;;;;;5072187;28;20224;-92
2023/04/22 07:54:57;;;;;;;5.77;4.00;;;;;;;;;;5063965;28;20264;-91
2023/04/22 07:57:24;;;;;;;4.40;4.00;;;;;;;;;;5067492;28;20270;-93
2023/04/22 07:59:52;;;;;;;4.30;3.90;;;;;;;;;;5072277;28;20208;-94
2023/04/22 08:02:19;;;;;;;6.27;3.87;;;;;;;;;;5058522;28;20283;-93
2023/04/22 08:04:46;;;;;;;4.87;4.33;;;;;;;;;;5072024;28;20221;-93
2023/04/22 08:07:12;;;;;;;10.17;4.70;;;;;;;;;;5071936;28;20260;-92
2023/04/22 08:09:39;;;;;;;6.50;4.13;;;;;;;;;;5063384;28;20214;-93
2023/04/22 08:12:06;;;;;;;5.50;4.00;;;;;;;;;;5068104;28;20669;-92
2023/04/22 08:14:33;;;;;;;7.97;4.40;;;;;;;;;;5063012;28;20213;-93
2023/04/22 08:17:01;;;;;;;7.13;3.97;;;;;;;;;;5068169;28;20732;-92
2023/04/22 08:19:28;;;;;;;5.80;4.43;;;;;;;;;;5071982;28;20299;-91
2023/04/22 08:21:58;;;;;;;5.60;4.00;;;;;;;;;;5058626;28;20207;-93
2023/04/22 08:24:25;;;;;;;6.83;4.13;;;;;;;;;;5061887;28;20303;-93
2023/04/22 08:26:52;;;;;;;7.43;4.67;;;;;;;;;;5065429;28;20684;-93
2023/04/22 08:29:19;;;;;;;5.03;3.67;;;;;;;;;;5063363;28;20208;-93
2023/04/22 08:31:46;;;;;;;4.17;3.77;;;;;;;;;;5075794;28;20213;-92
2023/04/22 08:34:14;;;;;;;4.53;3.60;;;;;;;;;;5076094;28;20255;-92
2023/04/22 08:36:41;;;;;;;5.47;4.30;;;;;;;;;;5062799;28;20210;-92
2023/04/22 08:39:09;;;;;;;12.30;5.37;;;;;;;;;;5064324;28;20205;-92
2023/04/22 08:41:37;;;;;;;8.57;6.97;;;;;;;;;;5074963;28;20296;-91
2023/04/22 08:44:05;;;;;;;6.47;4.13;;;;;;;;;;5075935;28;20209;-89
2023/04/22 08:46:32;;;;;;;7.27;3.60;;;;;;;;;;5062231;28;20204;-92
2023/04/22 08:49:02;;;;;;;6.93;4.47;;;;;;;;;;5076029;28;20718;-92
2023/04/22 08:51:32;;;;;;;4.97;4.00;;;;;;;;;;5062617;28;20209;-91
2023/04/22 08:53:59;;;;;;;5.63;5.00;;;;;;;;;;5061896;28;20230;-92
2023/04/22 08:56:27;;;;;;;6.37;3.50;;;;;;;;;;5075640;28;20208;-91
2023/04/22 08:58:54;;;;;;;4.37;3.97;;;;;;;;;;5061779;28;20244;-91
2023/04/22 09:01:21;;;;;;;7.67;3.67;;;;;;;;;;5063095;28;20216;-91
2023/04/22 09:03:48;;;;;;;5.30;4.80;;;;;;;;;;5073928;28;20736;-92
2023/04/22 09:06:17;;;;;;;6.83;3.50;;;;;;;;;;5063052;28;20213;-91
2023/04/22 09:08:46;;;;;;;4.40;3.90;;;;;;;;;;5055726;28;20252;-90
2023/04/22 09:11:13;;;;;;;4.47;3.57;;;;;;;;;;5068461;28;20213;-90
2023/04/22 09:13:40;;;;;;;5.70;3.80;;;;;;;;;;5062148;28;20244;-89
2023/04/22 09:16:07;;;;;;;6.37;3.47;;;;;;;;;;5062014;28;20279;-90
2023/04/22 09:18:40;;;;;;;151.87;73.67;;;;;;;;;;5041500;28;20285;-89
2023/04/22 09:21:07;;;;;;;59.97;38.90;;;;;;;;;;5068405;28;20595;-91
2023/04/22 09:23:34;;;;;;;18.40;11.53;;;;;;;;;;5062644;28;20215;-90
2023/04/22 09:26:03;;;;;;;22.70;17.60;;;;;;;;;;5061749;28;20222;-89
2023/04/22 09:28:29;;;;;;;7.30;4.80;;;;;;;;;;5074880;28;20216;-89
2023/04/22 09:31:00;;;;;;;9.20;6.47;;;;;;;;;;5074581;28;20208;-91
2023/04/22 09:33:27;;;;;;;11.57;8.87;;;;;;;;;;5074846;28;20251;-90
2023/04/22 09:35:54;;;;;;;11.80;5.93;;;;;;;;;;5072878;28;20653;-92
2023/04/22 09:38:20;;;;;;;9.53;5.70;;;;;;;;;;5054253;28;20230;-83
2023/04/22 09:40:47;;;;;;;6.77;4.23;;;;;;;;;;5066688;28;20209;-90
2023/04/22 09:43:19;;;;;;;7.27;5.67;;;;;;;;;;5064342;28;20205;-92
2023/04/22 09:45:45;;;;;;;7.67;4.67;;;;;;;;;;5061471;28;20277;-90
2023/04/22 09:48:14;;;;;;;8.20;7.40;;;;;;;;;;5074459;28;20667;-85
2023/04/22 09:50:43;;;;;;;12.13;6.50;;;;;;;;;;5068748;28;20266;-83
2023/04/22 09:53:11;;;;;;;7.27;4.47;;;;;;;;;;5073238;28;20225;-83
2023/04/22 09:55:40;;;;;;;7.93;4.10;;;;;;;;;;5073249;28;20204;-83
2023/04/22 09:58:10;;;;;;;5.47;3.97;;;;;;;;;;5073252;28;20216;-83
2023/04/22 10:00:41;;;;;;;4.97;3.80;;;;;;;;;;5076012;28;20210;-82
2023/04/22 10:03:14;;;;;;;9.57;5.93;;;;;;;;;;5045247;28;20236;-83
2023/04/22 10:05:43;;;;;;;5.50;4.13;;;;;;;;;;5071739;28;20221;-82
2023/04/22 10:08:11;;;;;;;6.93;3.70;;;;;;;;;;5073803;28;20210;-83
2023/04/22 10:10:38;;;;;;;3.67;3.37;;;;;;;;;;5073162;28;20209;-82
2023/04/22 10:13:05;;;;;;;11.20;3.50;;;;;;;;;;5072877;28;20224;-83
2023/04/22 10:15:33;;;;;;;7.50;3.97;;;;;;;;;;5068451;28;20270;-83
2023/04/22 10:18:02;;;;;;;7.53;5.57;;;;;;;;;;5064855;28;20733;-83
2023/04/22 10:20:29;;;;;;;6.07;4.97;;;;;;;;;;5067148;28;20218;-84
2023/04/22 10:22:56;;;;;;;8.37;7.57;;;;;;;;;;5065030;28;20217;-84
2023/04/22 10:25:24;;;;;;;11.13;7.80;;;;;;;;;;5059098;28;20228;-83
2023/04/22 10:27:55;;;;;;;6.07;4.80;;;;;;;;;;5072369;28;20220;-83
2023/04/22 10:30:28;;;;;;;15.87;13.20;;;;;;;;;;5059403;28;20198;-83
2023/04/22 10:32:55;;;;;;;8.90;4.43;;;;;;;;;;5058437;28;20259;-81
2023/04/22 10:35:29;;;;;;;13.77;10.70;;;;;;;;;;5052975;28;20692;-93
2023/04/22 10:37:55;;;;;;;6.43;5.73;;;;;;;;;;5068218;28;20232;-85
2023/04/22 10:40:28;;;;;;;6.67;5.93;;;;;;;;;;5072459;28;20209;-84
2023/04/22 10:43:02;;;;;;;7.40;6.10;;;;;;;;;;5059029;28;20201;-85
2023/04/22 10:45:32;;;;;;;16.90;9.13;;;;;;;;;;5072612;28;20214;-84
2023/04/22 10:48:05;;;;;;;18.13;12.47;;;;;;;;;;5053914;28;20213;-84
2023/04/22 10:50:33;;;;;;;9.30;7.23;;;;;;;;;;5052871;28;20217;-83
2023/04/22 10:53:02;;;;;;;41.57;20.07;;;;;;;;;;5050074;28;20213;-83
2023/04/22 10:55:49;;;;;;;17.33;8.97;;;;;;;;;;5053322;28;20210;-84
2023/04/22 10:58:19;;;;;;;8.97;3.50;;;;;;;;;;5056476;28;20206;-83
2023/04/22 11:00:52;;;;;;;10.27;5.73;;;;;;;;;;5041762;28;20213;-83
2023/04/22 11:03:19;;;;;;;6.57;3.57;;;;;;;;;;5065375;28;20212;-84
2023/04/22 11:05:49;;;;;;;7.33;4.53;;;;;;;;;;5063894;28;20212;-84
2023/04/22 11:08:20;;;;;;;8.00;4.37;;;;;;;;;;5045403;28;20205;-83
2023/04/22 11:10:50;;;;;;;8.40;4.80;;;;;;;;;;5063497;28;20285;-84
2023/04/22 11:13:24;;;;;;;8.87;5.27;;;;;;;;;;5051587;28;20226;-84
2023/04/22 11:15:52;;;;;;;4.93;3.57;;;;;;;;;;5052480;28;20217;-83
2023/04/22 11:18:21;;;;;;;11.87;10.43;;;;;;;;;;5055553;28;20684;-83
2023/04/22 11:20:50;;;;;;;12.20;10.03;;;;;;;;;;5070748;28;20208;-83
2023/04/22 11:23:22;;;;;;;7.27;4.03;;;;;;;;;;5065916;28;20209;-84
2023/04/22 11:25:54;;;;;;;10.33;5.07;;;;;;;;;;5064652;28;20239;-84
2023/04/22 11:28:21;;;;;;;8.27;4.27;;;;;;;;;;5038785;28;20696;-83
2023/04/22 11:30:48;;;;;;;13.40;7.93;;;;;;;;;;5064936;28;20274;-84
2023/04/22 11:33:20;;;;;;;7.47;4.73;;;;;;;;;;5059589;28;20228;-83
2023/04/22 11:35:51;;;;;;;5.27;3.57;;;;;;;;;;5071371;28;20283;-83
2023/04/22 11:38:21;;;;;;;6.70;5.57;;;;;;;;;;5062443;28;20204;-84
2023/04/22 11:40:48;;;;;;;9.33;4.70;;;;;;;;;;5065186;28;20206;-84
2023/04/22 11:43:18;;;;;;;5.23;3.80;;;;;;;;;;5051149;28;20242;-84
2023/04/22 11:45:46;;;;;;;5.87;3.23;;;;;;;;;;5050833;28;20209;-84
2023/04/22 11:48:14;;;;;;;4.33;3.63;;;;;;;;;;5061393;28;20197;-84
2023/04/22 11:50:44;;;;;;;4.87;3.33;;;;;;;;;;5070253;28;20294;-84
2023/04/22 11:53:17;;;;;;;4.63;3.87;;;;;;;;;;5045985;28;20205;-84
2023/04/22 11:55:46;;;;;;;8.03;4.00;;;;;;;;;;5058165;28;20204;-84
2023/04/22 11:58:15;;;;;;;6.23;3.40;;;;;;;;;;5070920;28;20201;-84
2023/04/22 12:00:44;;;;;;;12.03;7.73;;;;;;;;;;5070472;28;20632;-83
2023/04/22 12:03:13;;;;;;;17.07;11.40;;;;;;;;;;5070844;28;20205;-84
2023/04/22 12:05:42;;;;;;;5.63;5.07;;;;;;;;;;5073702;28;20212;-85
2023/04/22 12:11:03;;;;;;;7.33;4.30;;;;;;;;;;5046591;28;20215;-85
2023/04/22 12:13:35;;;;;;;5.10;4.60;;;;;;;;;;5071104;28;20593;-85
2023/04/22 12:16:22;;;;;;;8.47;5.40;;;;;;;;;;5060065;28;20221;-84
2023/04/22 12:18:49;;;;;;;18.30;15.17;;;;;;;;;;5064257;28;20209;-85
2023/04/22 12:21:19;;;;;;;14.63;13.10;;;;;;;;;;5062417;28;20209;-85
2023/04/22 12:23:47;;;;;;;9.30;6.10;;;;;;;;;;5057544;28;20697;-85
2023/04/22 12:26:16;;;;;;;8.53;6.93;;;;;;;;;;5070989;28;20205;-85
2023/04/22 12:28:44;;;;;;;14.47;8.47;;;;;;;;;;5063787;28;20202;-85
2023/04/22 12:31:11;;;;;;;13.77;7.70;;;;;;;;;;5051064;28;20754;-86
2023/04/22 12:33:38;;;;;;;7.97;6.13;;;;;;;;;;5044596;28;20703;-85
2023/04/22 12:36:06;;;;;;;9.03;6.73;;;;;;;;;;5070634;28;20212;-85
2023/04/22 12:38:33;;;;;;;6.93;6.23;;;;;;;;;;5050873;28;20206;-84
2023/04/22 12:41:02;;;;;;;8.90;5.90;;;;;;;;;;5065262;28;20230;-85
2023/04/22 12:43:32;;;;;;;8.83;5.70;;;;;;;;;;5070763;28;20733;-84
2023/04/22 12:46:00;;;;;;;5.07;4.37;;;;;;;;;;5050983;28;20639;-85
2023/04/22 12:48:27;;;;;;;8.40;6.67;;;;;;;;;;5070522;28;20228;-86
2023/04/22 12:50:54;;;;;;;10.63;8.07;;;;;;;;;;5052143;28;20214;-84
2023/04/22 12:53:22;;;;;;;11.13;8.57;;;;;;;;;;5030104;28;20217;-85
2023/04/22 12:55:50;;;;;;;8.60;6.93;;;;;;;;;;5061525;28;20228;-84
2023/04/22 12:58:18;;;;;;;8.63;4.97;;;;;;;;;;5050484;28;20231;-84
2023/04/22 13:00:46;;;;;;;7.17;5.17;;;;;;;;;;5037376;28;20212;-84
2023/04/22 13:03:15;;;;;;;7.37;4.93;;;;;;;;;;5059012;28;20213;-84
2023/04/22 13:05:42;;;;;;;7.33;4.20;;;;;;;;;;5055787;28;20247;-84
2023/04/22 13:08:09;;;;;;;8.33;5.47;;;;;;;;;;5057889;28;20715;-84
2023/04/22 13:10:36;;;;;;;5.07;4.27;;;;;;;;;;5063084;28;20696;-85
2023/04/22 13:13:03;;;;;;;7.30;6.40;;;;;;;;;;5050214;28;20209;-84
2023/04/22 13:15:30;;;;;;;7.27;5.20;;;;;;;;;;5069977;28;20251;-84
2023/04/22 13:17:59;;;;;;;6.00;5.17;;;;;;;;;;5055954;28;20247;-86
2023/04/22 13:20:26;;;;;;;8.43;4.67;;;;;;;;;;5046474;28;20706;-85
2023/04/22 13:22:54;;;;;;;5.53;5.03;;;;;;;;;;5055960;28;20213;-86
2023/04/22 13:25:23;;;;;;;7.30;5.00;;;;;;;;;;5053964;28;20238;-86
2023/04/22 13:27:50;;;;;;;6.17;5.17;;;;;;;;;;5053358;28;20259;-85
2023/04/22 13:30:17;;;;;;;6.80;4.03;;;;;;;;;;5064846;28;20198;-85
2023/04/22 13:32:44;;;;;;;9.00;4.50;;;;;;;;;;5067751;28;20597;-85
2023/04/22 13:35:13;;;;;;;6.37;4.53;;;;;;;;;;5048186;28;20236;-85
2023/04/22 13:37:40;;;;;;;11.43;4.47;;;;;;;;;;5054542;28;20206;-85
2023/04/22 13:40:09;;;;;;;10.97;4.07;;;;;;;;;;5063662;28;20256;-85
2023/04/22 13:42:36;;;;;;;6.63;3.70;;;;;;;;;;5069413;28;20277;-87
2023/04/22 13:45:04;;;;;;;7.30;4.67;;;;;;;;;;5073091;28;20212;-86
2023/04/22 13:47:31;;;;;;;7.13;5.93;;;;;;;;;;5044244;28;20212;-85
2023/04/22 13:49:59;;;;;;;10.80;6.43;;;;;;;;;;5056196;28;20228;-86
2023/04/22 13:52:27;;;;;;;18.90;10.83;;;;;;;;;;5052833;28;20216;-85
2023/04/22 13:54:55;;;;;;;6.57;4.70;;;;;;;;;;5073464;28;20244;-86
2023/04/22 13:57:23;;;;;;;5.50;3.67;;;;;;;;;;5071609;28;20201;-84
2023/04/22 13:59:51;;;;;;;5.70;4.13;;;;;;;;;;5055934;28;20209;-86
2023/04/22 14:02:17;;;;;;;7.27;6.57;;;;;;;;;;5059383;28;20682;-83
2023/04/22 14:04:45;;;;;;;22.47;15.97;;;;;;;;;;5071374;28;20623;-83
2023/04/22 14:07:12;;;;;;;43.13;32.90;;;;;;;;;;5057511;28;20216;-83
2023/04/22 14:09:41;;;;;;;26.40;20.33;;;;;;;;;;5061613;28;20216;-82
2023/04/22 14:12:12;;;;;;;19.60;16.53;;;;;;;;;;5052444;28;20722;-85
2023/04/22 14:14:39;;;;;;;10.20;8.10;;;;;;;;;;5061702;28;20239;-83
2023/04/22 14:17:06;;;;;;;5.77;4.47;;;;;;;;;;5051837;28;20205;-83
2023/04/22 14:19:38;;;;;;;9.33;6.50;;;;;;;;;;5053074;28;20208;-82
2023/04/22 14:22:08;;;;;;;9.73;6.57;;;;;;;;;;5064148;28;20202;-83
2023/04/22 14:24:34;;;;;;;6.73;4.83;;;;;;;;;;5056069;28;20306;-83
2023/04/22 14:27:04;;;;;;;7.70;5.77;;;;;;;;;;5066590;28;20206;-83
2023/04/22 14:29:30;;;;;;;9.93;4.67;;;;;;;;;;5063442;28;20216;-83
2023/04/22 14:31:58;;;;;;;8.07;5.00;;;;;;;;;;5067115;28;20593;-83
2023/04/22 14:34:26;;;;;;;9.50;4.97;;;;;;;;;;5051440;28;20225;-83
2023/04/22 14:36:54;;;;;;;7.90;4.83;;;;;;;;;;5044652;28;20210;-84
2023/04/22 14:39:21;;;;;;;9.60;8.60;;;;;;;;;;5044063;28;20221;-85
2023/04/22 14:41:48;;;;;;;9.37;6.83;;;;;;;;;;5057219;28;20208;-85
2023/04/22 14:44:19;;;;;;;14.40;9.40;;;;;;;;;;5049755;28;20221;-84
2023/04/22 14:46:46;;;;;;;28.63;21.40;;;;;;;;;;5062492;28;20213;-83